LAN2329 SPQU-SPZO
Flight info
| Callsign | LAN2329 |
|---|---|
| Flight time | 0h 31m |
| Altitude | 31000 |
| Route | KOLKA UV15 LITOT |
| Aircraft | A320/M-SDE3FGHIRWY/LB1 |
Departure
| Time | 2026-04-24 15:27 |
|---|---|
| Airport | Rodríguez Ballón International Airport (SPQU) |
Arrival
| Time | 2026-04-24 15:58 |
|---|---|
| Airport | Alejandro Velasco Astete International Airport (SPZO) |
| Time | Latitude | Longitude | Altitude | Speed | Heading |
|---|---|---|---|---|---|
| 2026-04-24 15:06 | -16.34391 | -71.56785 | 8344 ft | 0 kts | 219° |
| 2026-04-24 15:18 | -16.34383 | -71.56778 | 8345 ft | 4 kts | 219° |
| 2026-04-24 15:19 | -16.34366 | -71.56762 | 8351 ft | 1 kts | 163° |
| 2026-04-24 15:19 | -16.34347 | -71.56776 | 8348 ft | 2 kts | 135° |
| 2026-04-24 15:19 | -16.34344 | -71.56782 | 8344 ft | 0 kts | 99° |
| 2026-04-24 15:20 | -16.34344 | -71.56781 | 8344 ft | 0 kts | 99° |
| 2026-04-24 15:20 | -16.34345 | -71.56770 | 8344 ft | 3 kts | 99° |
| 2026-04-24 15:21 | -16.34349 | -71.56742 | 8344 ft | 5 kts | 97° |
| 2026-04-24 15:21 | -16.34355 | -71.56695 | 8348 ft | 8 kts | 97° |
| 2026-04-24 15:21 | -16.34360 | -71.56630 | 8345 ft | 10 kts | 91° |
| 2026-04-24 15:21 | -16.34360 | -71.56548 | 8347 ft | 13 kts | 91° |
| 2026-04-24 15:22 | -16.34365 | -71.56439 | 8348 ft | 16 kts | 93° |
| 2026-04-24 15:22 | -16.34370 | -71.56326 | 8358 ft | 15 kts | 93° |
| 2026-04-24 15:22 | -16.34376 | -71.56228 | 8367 ft | 13 kts | 93° |
| 2026-04-24 15:23 | -16.34376 | -71.56069 | 8381 ft | 10 kts | 73° |
| 2026-04-24 15:23 | -16.34300 | -71.55945 | 8391 ft | 10 kts | 56° |
| 2026-04-24 15:23 | -16.34263 | -71.55888 | 8398 ft | 8 kts | 56° |
| 2026-04-24 15:24 | -16.34225 | -71.55824 | 8407 ft | 0 kts | 60° |
| 2026-04-24 15:25 | -16.34211 | -71.55800 | 8410 ft | 7 kts | 59° |
| 2026-04-24 15:25 | -16.34116 | -71.55762 | 8413 ft | 7 kts | 267° |
| 2026-04-24 15:26 | -16.34120 | -71.56197 | 8410 ft | 88 kts | 276° |
| 2026-04-24 15:27 | -16.33972 | -71.59644 | 9316 ft | 181 kts | 271° |
| 2026-04-24 15:27 | -16.33533 | -71.63365 | 10636 ft | 178 kts | 296° |
| 2026-04-24 15:28 | -16.31108 | -71.68758 | 11182 ft | 238 kts | 296° |
| 2026-04-24 15:29 | -16.29603 | -71.72155 | 11440 ft | 282 kts | 295° |
| 2026-04-24 15:30 | -16.26872 | -71.78374 | 11858 ft | 348 kts | 295° |
| 2026-04-24 15:31 | -16.22676 | -71.88237 | 13610 ft | 383 kts | 293° |
| 2026-04-24 15:32 | -16.16116 | -71.96609 | 15757 ft | 389 kts | 341° |
| 2026-04-24 15:33 | -16.05316 | -71.96294 | 17930 ft | 397 kts | 7° |
| 2026-04-24 15:33 | -15.97009 | -71.95281 | 19517 ft | 406 kts | 7° |
| 2026-04-24 15:34 | -15.91379 | -71.94624 | 20490 ft | 412 kts | 7° |
| 2026-04-24 15:35 | -15.82769 | -71.93618 | 21814 ft | 420 kts | 7° |
| 2026-04-24 15:35 | -15.76957 | -71.92930 | 22618 ft | 425 kts | 7° |
| 2026-04-24 15:35 | -15.74007 | -71.92582 | 22995 ft | 427 kts | 7° |
| 2026-04-24 15:36 | -15.71038 | -71.92231 | 23362 ft | 430 kts | 7° |
| 2026-04-24 15:36 | -15.65075 | -71.91534 | 24094 ft | 434 kts | 7° |
| 2026-04-24 15:36 | -15.62049 | -71.91182 | 24429 ft | 437 kts | 7° |
| 2026-04-24 15:37 | -15.59042 | -71.90830 | 24776 ft | 439 kts | 7° |
| 2026-04-24 15:37 | -15.56009 | -71.90474 | 25099 ft | 440 kts | 7° |
| 2026-04-24 15:37 | -15.53984 | -71.90236 | 25302 ft | 442 kts | 7° |
| 2026-04-24 15:37 | -15.49864 | -71.89752 | 25705 ft | 445 kts | 7° |
| 2026-04-24 15:38 | -15.46822 | -71.89392 | 26006 ft | 447 kts | 7° |
| 2026-04-24 15:38 | -15.43728 | -71.89026 | 26296 ft | 448 kts | 7° |
| 2026-04-24 15:38 | -15.40622 | -71.88657 | 26579 ft | 450 kts | 7° |
| 2026-04-24 15:38 | -15.37501 | -71.88289 | 26846 ft | 452 kts | 7° |
| 2026-04-24 15:39 | -15.34356 | -71.87918 | 27097 ft | 454 kts | 7° |
| 2026-04-24 15:39 | -15.31198 | -71.87547 | 27354 ft | 457 kts | 7° |
| 2026-04-24 15:39 | -15.28066 | -71.87180 | 27598 ft | 458 kts | 7° |
| 2026-04-24 15:39 | -15.24872 | -71.86806 | 27842 ft | 460 kts | 7° |
| 2026-04-24 15:40 | -15.22761 | -71.86558 | 27996 ft | 461 kts | 7° |
| 2026-04-24 15:40 | -15.19340 | -71.86157 | 28250 ft | 463 kts | 7° |
| 2026-04-24 15:40 | -15.16170 | -71.85788 | 28434 ft | 464 kts | 7° |
| 2026-04-24 15:40 | -15.12952 | -71.85412 | 27756 ft | 464 kts | 7° |
| 2026-04-24 15:41 | -15.09725 | -71.85035 | 26724 ft | 462 kts | 7° |
| 2026-04-24 15:41 | -15.06601 | -71.84668 | 25480 ft | 453 kts | 8° |
| 2026-04-24 15:41 | -15.03487 | -71.84303 | 24254 ft | 445 kts | 8° |
| 2026-04-24 15:41 | -15.00433 | -71.83945 | 23068 ft | 437 kts | 8° |
| 2026-04-24 15:42 | -14.97465 | -71.83597 | 22099 ft | 433 kts | 8° |
| 2026-04-24 15:42 | -14.94472 | -71.83244 | 21693 ft | 431 kts | 8° |
| 2026-04-24 15:42 | -14.91480 | -71.82891 | 21502 ft | 431 kts | 8° |
| 2026-04-24 15:42 | -14.88500 | -71.82540 | 21448 ft | 432 kts | 7° |
| 2026-04-24 15:43 | -14.85533 | -71.82189 | 21465 ft | 432 kts | 7° |
| 2026-04-24 15:43 | -14.82541 | -71.81834 | 21469 ft | 432 kts | 7° |
| 2026-04-24 15:43 | -14.79579 | -71.81486 | 21468 ft | 431 kts | 8° |
| 2026-04-24 15:43 | -14.76592 | -71.81047 | 21473 ft | 431 kts | 11° |
| 2026-04-24 15:44 | -14.73674 | -71.80502 | 21475 ft | 430 kts | 12° |
| 2026-04-24 15:44 | -14.70728 | -71.79881 | 21478 ft | 430 kts | 13° |
| 2026-04-24 15:44 | -14.67795 | -71.79235 | 21478 ft | 430 kts | 13° |
| 2026-04-24 15:44 | -14.64896 | -71.78601 | 21481 ft | 430 kts | 13° |
| 2026-04-24 15:45 | -14.61954 | -71.77976 | 21487 ft | 430 kts | 13° |
| 2026-04-24 15:45 | -14.59037 | -71.77375 | 21487 ft | 430 kts | 12° |
| 2026-04-24 15:45 | -14.56085 | -71.76785 | 21499 ft | 431 kts | 12° |
| 2026-04-24 15:45 | -14.53129 | -71.76204 | 21498 ft | 430 kts | 12° |
| 2026-04-24 15:46 | -14.50187 | -71.75627 | 21495 ft | 430 kts | 12° |
| 2026-04-24 15:46 | -14.47286 | -71.75054 | 21504 ft | 430 kts | 12° |
| 2026-04-24 15:46 | -14.44348 | -71.74469 | 21504 ft | 430 kts | 12° |
| 2026-04-24 15:46 | -14.41407 | -71.73882 | 21511 ft | 430 kts | 12° |
| 2026-04-24 15:47 | -14.38456 | -71.73289 | 21547 ft | 430 kts | 12° |
| 2026-04-24 15:47 | -14.35548 | -71.72704 | 21560 ft | 431 kts | 12° |
| 2026-04-24 15:47 | -14.32586 | -71.72110 | 21558 ft | 430 kts | 12° |
| 2026-04-24 15:47 | -14.29663 | -71.71523 | 21557 ft | 430 kts | 12° |
| 2026-04-24 15:48 | -14.26717 | -71.70934 | 21558 ft | 430 kts | 12° |
| 2026-04-24 15:48 | -14.23802 | -71.70354 | 21560 ft | 430 kts | 12° |
| 2026-04-24 15:48 | -14.20852 | -71.69769 | 21557 ft | 430 kts | 12° |
| 2026-04-24 15:48 | -14.17937 | -71.69192 | 21559 ft | 430 kts | 12° |
| 2026-04-24 15:49 | -14.14984 | -71.68605 | 21474 ft | 430 kts | 12° |
| 2026-04-24 15:49 | -14.12048 | -71.68020 | 21260 ft | 428 kts | 12° |
| 2026-04-24 15:49 | -14.09149 | -71.67441 | 21082 ft | 427 kts | 12° |
| 2026-04-24 15:49 | -14.06228 | -71.66856 | 20894 ft | 426 kts | 12° |
| 2026-04-24 15:50 | -14.03360 | -71.66230 | 20715 ft | 425 kts | 16° |
| 2026-04-24 15:50 | -14.00557 | -71.65272 | 20541 ft | 423 kts | 22° |
| 2026-04-24 15:50 | -13.97802 | -71.64166 | 20086 ft | 421 kts | 22° |
| 2026-04-24 15:50 | -13.95112 | -71.63093 | 19689 ft | 418 kts | 22° |
| 2026-04-24 15:51 | -13.92397 | -71.62009 | 19278 ft | 417 kts | 22° |
| 2026-04-24 15:51 | -13.89676 | -71.60983 | 18852 ft | 415 kts | 17° |
| 2026-04-24 15:51 | -13.86883 | -71.60472 | 18322 ft | 413 kts | 4° |
| 2026-04-24 15:51 | -13.83985 | -71.60500 | 17415 ft | 418 kts | 358° |
| 2026-04-24 15:52 | -13.81147 | -71.60639 | 17097 ft | 409 kts | 358° |
| 2026-04-24 15:52 | -13.78329 | -71.60789 | 16869 ft | 392 kts | 358° |
| 2026-04-24 15:52 | -13.75714 | -71.60938 | 16639 ft | 368 kts | 355° |
| 2026-04-24 15:52 | -13.73270 | -71.61440 | 16423 ft | 348 kts | 341° |
| 2026-04-24 15:53 | -13.71121 | -71.62471 | 16213 ft | 332 kts | 328° |
| 2026-04-24 15:53 | -13.69345 | -71.63917 | 16028 ft | 327 kts | 314° |
| 2026-04-24 15:53 | -13.67776 | -71.65624 | 15719 ft | 327 kts | 314° |
| 2026-04-24 15:53 | -13.66228 | -71.67300 | 15357 ft | 324 kts | 314° |
| 2026-04-24 15:54 | -13.64667 | -71.68980 | 15017 ft | 324 kts | 314° |
| 2026-04-24 15:54 | -13.63098 | -71.70663 | 14484 ft | 328 kts | 314° |
| 2026-04-24 15:54 | -13.61520 | -71.72356 | 13942 ft | 334 kts | 313° |
| 2026-04-24 15:54 | -13.60119 | -71.74237 | 13719 ft | 326 kts | 302° |
| 2026-04-24 15:55 | -13.59087 | -71.76289 | 13491 ft | 318 kts | 292° |
| 2026-04-24 15:55 | -13.58276 | -71.78356 | 13199 ft | 304 kts | 292° |
| 2026-04-24 15:55 | -13.57506 | -71.80308 | 12909 ft | 291 kts | 292° |
| 2026-04-24 15:55 | -13.56772 | -71.82185 | 12636 ft | 273 kts | 291° |
| 2026-04-24 15:56 | -13.56147 | -71.83941 | 12294 ft | 256 kts | 289° |
| 2026-04-24 15:56 | -13.55528 | -71.85632 | 11972 ft | 248 kts | 296° |
| 2026-04-24 15:56 | -13.54701 | -71.87158 | 11694 ft | 237 kts | 301° |
| 2026-04-24 15:56 | -13.54392 | -71.87773 | 11589 ft | 228 kts | 293° |
| 2026-04-24 15:57 | -13.54091 | -71.88806 | 11383 ft | 216 kts | 280° |
| 2026-04-24 15:57 | -13.54013 | -71.89455 | 11190 ft | 209 kts | 274° |
| 2026-04-24 15:57 | -13.53912 | -71.90872 | 10955 ft | 189 kts | 277° |
| 2026-04-24 15:57 | -13.53758 | -71.92161 | 10760 ft | 177 kts | 278° |
| 2026-04-24 15:58 | -13.53627 | -71.93321 | 10767 ft | 147 kts | 276° |
| 2026-04-24 15:58 | -13.53555 | -71.94062 | 10810 ft | 61 kts | 275° |
| 2026-04-24 15:58 | -13.53542 | -71.94314 | 10815 ft | 10 kts | 240° |
| 2026-04-24 15:58 | -13.53600 | -71.94343 | 10815 ft | 10 kts | 187° |
| 2026-04-24 15:59 | -13.53607 | -71.94344 | 10815 ft | 0 kts | 188° |
| 2026-04-24 15:59 | -13.53608 | -71.94344 | 10815 ft | 0 kts | 188° |
| 2026-04-24 15:59 | -13.53620 | -71.94346 | 10815 ft | 3 kts | 188° |
| 2026-04-24 15:59 | -13.53643 | -71.94349 | 10816 ft | 4 kts | 184° |
| 2026-04-24 16:00 | -13.53669 | -71.94322 | 10817 ft | 9 kts | 98° |
| 2026-04-24 16:00 | -13.53710 | -71.94277 | 10817 ft | 10 kts | 204° |
| 2026-04-24 16:00 | -13.53723 | -71.94313 | 10817 ft | 1 kts | 262° |
| 2026-04-24 16:00 | -13.53724 | -71.94322 | 10817 ft | 2 kts | 261° |
| 2026-04-24 16:01 | -13.53724 | -71.94323 | 10817 ft | 0 kts | 261° |